createdAt,value
2023-03-22T00:02:57.558Z,97186.00
2023-03-22T00:06:00.430Z,97187.06
2023-03-22T00:08:38.561Z,97193.63
2023-03-22T00:11:48.677Z,97203.73
2023-03-22T00:14:34.807Z,97211.61
2023-03-22T00:17:40.929Z,97218.17
2023-03-22T00:20:29.260Z,97219.53
2023-03-22T00:25:48.120Z,97217.91
2023-03-22T00:28:19.475Z,97231.80
2023-03-22T00:31:02.519Z,97238.06
2023-03-22T00:33:32.943Z,97244.05
2023-03-22T00:38:50.768Z,97264.55
2023-03-22T00:41:29.422Z,97278.95
2023-03-22T00:43:59.358Z,97297.23
2023-03-22T00:46:29.529Z,97295.05
2023-03-22T00:48:59.487Z,97295.05
2023-03-22T00:51:29.389Z,97288.23
2023-03-22T00:54:26.001Z,97295.05
2023-03-22T00:57:01.885Z,97297.77
2023-03-22T01:00:39.609Z,97296.11
2023-03-22T01:06:22.835Z,97294.23
2023-03-22T01:08:54.388Z,97299.69
2023-03-22T01:15:07.043Z,97299.66
2023-03-22T01:18:04.263Z,97306.48
2023-03-22T01:20:55.819Z,97302.59
2023-03-22T01:27:01.623Z,97310.04
2023-03-22T01:29:57.283Z,97313.55
2023-03-22T01:35:56.290Z,97301.02
2023-03-22T01:38:41.872Z,97305.62
2023-03-22T01:48:20.218Z,97315.70
2023-03-22T01:51:31.498Z,97311.34
2023-03-22T01:54:18.174Z,97320.63
2023-03-22T02:03:06.980Z,97321.97
2023-03-22T02:06:25.367Z,97328.23
2023-03-22T02:12:40.892Z,97333.69
2023-03-22T02:15:35.720Z,97331.20
2023-03-22T02:18:57.262Z,97334.73
2023-03-22T02:21:57.834Z,97339.36
2023-03-22T02:24:58.941Z,97346.45
2023-03-22T02:27:47.895Z,97358.72
2023-03-22T02:30:41.514Z,97371.77
2023-03-22T02:33:56.972Z,97370.41
2023-03-22T02:36:52.047Z,97384.59
2023-03-22T02:39:52.594Z,97384.81
2023-03-22T02:42:46.281Z,97384.83
2023-03-22T02:45:26.179Z,97392.73
2023-03-22T02:48:30.919Z,97391.92
2023-03-22T02:51:48.042Z,97388.89
2023-03-22T02:54:46.306Z,97391.36
2023-03-22T02:57:44.989Z,97386.15
2023-03-22T03:01:25.530Z,97385.88
2023-03-22T03:03:20.407Z,97385.33
2023-03-22T03:09:43.007Z,97385.61
2023-03-22T03:18:21.464Z,97385.56
2023-03-22T03:21:48.140Z,97388.28
2023-03-22T03:24:50.866Z,97389.89
2023-03-22T03:27:40.545Z,97395.34
2023-03-22T03:30:51.833Z,97391.23
2023-03-22T03:33:22.776Z,97392.59
2023-03-22T03:36:20.062Z,97391.75
2023-03-22T03:39:14.192Z,97392.33
2023-03-22T03:48:26.219Z,97393.91
2023-03-22T03:51:47.530Z,97402.91
2023-03-22T03:54:48.459Z,97395.00
2023-03-22T03:57:52.320Z,97384.89
2023-03-22T04:06:22.134Z,97386.55
2023-03-22T04:12:44.508Z,97389.26
2023-03-22T04:15:56.128Z,97383.53
2023-03-22T04:18:51.615Z,97393.88
2023-03-22T04:21:53.009Z,97386.26
2023-03-22T04:30:33.566Z,97384.65
2023-03-22T04:33:26.975Z,97396.83
2023-03-22T04:36:25.060Z,97399.25
2023-03-22T04:42:30.967Z,97380.75
2023-03-22T04:45:18.741Z,97375.55
2023-03-22T04:51:33.541Z,97363.82
2023-03-22T04:54:40.519Z,97364.64
2023-03-22T05:00:42.776Z,97350.17
2023-03-22T05:03:18.008Z,97346.34
2023-03-22T05:06:40.151Z,97351.23
2023-03-22T05:09:28.449Z,97350.42
2023-03-22T05:12:42.528Z,97336.75
2023-03-22T05:15:50.273Z,97339.77
2023-03-22T05:18:43.998Z,97332.42
2023-03-22T05:22:03.721Z,97335.42
2023-03-22T05:25:00.625Z,97343.86
2023-03-22T05:27:32.200Z,97348.77
2023-03-22T05:33:20.985Z,97346.56
2023-03-22T05:36:15.242Z,97345.47
2023-03-22T05:38:45.531Z,97343.53
2023-03-22T05:41:16.814Z,97345.20
2023-03-22T05:43:46.792Z,97340.55
2023-03-22T05:46:21.532Z,97332.62
2023-03-22T05:48:57.140Z,97331.83
2023-03-22T05:51:43.824Z,97331.56
2023-03-22T05:54:34.118Z,97319.00
2023-03-22T05:57:18.451Z,97326.63
2023-03-22T05:59:48.505Z,97323.91
2023-03-22T06:02:18.804Z,97324.73
2023-03-22T06:04:48.823Z,97326.09
2023-03-22T06:07:18.794Z,97326.64
2023-03-22T06:09:48.670Z,97318.94
2023-03-22T06:12:55.747Z,97338.34
2023-03-22T06:15:31.044Z,97342.67
2023-03-22T06:24:32.082Z,97334.78
2023-03-22T06:27:22.752Z,97348.39
2023-03-22T06:29:53.983Z,97345.91
2023-03-22T06:32:24.439Z,97341.55
2023-03-22T06:34:54.758Z,97333.63
2023-03-22T06:37:25.604Z,97348.61
2023-03-22T06:39:55.663Z,97345.34
2023-03-22T06:42:56.330Z,97352.96
2023-03-22T06:45:40.044Z,97345.34
2023-03-22T06:48:29.198Z,97347.52
2023-03-22T06:51:19.470Z,97337.45
2023-03-22T06:53:31.858Z,97336.90
2023-03-22T06:56:13.791Z,97338.51
2023-03-22T06:58:44.465Z,97339.05
2023-03-22T07:01:14.485Z,97340.41
2023-03-22T07:06:40.574Z,97347.27
2023-03-22T07:09:37.320Z,97349.13
2023-03-22T07:16:29.451Z,97352.94
2023-03-22T07:18:54.291Z,97343.66
2023-03-22T07:21:51.362Z,97344.20
2023-03-22T07:24:58.308Z,97343.90
2023-03-22T07:40:07.275Z,97345.23
2023-03-22T07:43:09.510Z,97348.50
2023-03-22T07:45:52.419Z,97344.14
2023-03-22T07:48:47.715Z,97338.43
2023-03-22T07:51:43.190Z,97339.79
2023-03-22T07:59:57.925Z,97329.42
2023-03-22T08:02:27.871Z,97321.25
2023-03-22T08:04:58.338Z,97314.17
2023-03-22T08:07:31.229Z,97305.46
2023-03-22T08:10:01.453Z,97309.28
2023-03-22T08:12:45.181Z,97313.06
2023-03-22T08:16:30.259Z,97306.80
2023-03-22T08:18:03.088Z,97301.90
2023-03-22T08:20:32.904Z,97296.97
2023-03-22T08:23:02.744Z,97299.17
2023-03-22T08:25:34.152Z,97291.28
2023-03-22T08:28:26.061Z,97302.71
2023-03-22T08:30:55.953Z,97313.60
2023-03-22T08:34:03.158Z,97313.06
2023-03-22T08:37:02.229Z,97295.64
2023-03-22T08:39:55.746Z,97295.91
2023-03-22T08:49:12.653Z,97287.77
2023-03-22T08:52:02.482Z,97293.16
2023-03-22T08:55:10.178Z,97283.31
2023-03-22T08:58:08.716Z,97284.72
2023-03-22T09:01:03.384Z,97284.45
2023-03-22T09:07:40.389Z,97285.52
2023-03-22T09:10:57.030Z,97273.00
2023-03-22T09:13:26.915Z,97279.25
2023-03-22T09:16:16.088Z,97279.80
2023-03-22T09:19:16.874Z,97263.66
2023-03-22T09:22:18.959Z,97269.70
2023-03-22T09:25:36.316Z,97271.87
2023-03-22T12:34:57.983Z,97368.92
2023-03-22T12:37:41.162Z,97359.13
2023-03-22T12:43:12.118Z,97371.97
2023-03-22T12:45:43.860Z,97377.96
2023-03-22T12:48:37.483Z,97369.55
2023-03-22T12:54:03.196Z,97375.63
2023-03-22T12:56:54.237Z,97377.78
2023-03-22T12:59:26.254Z,97381.89
2023-03-22T13:02:01.986Z,97385.70
2023-03-22T13:05:08.018Z,97384.38
2023-03-22T13:08:37.046Z,97385.49
2023-03-22T13:11:24.200Z,97377.91
2023-03-22T13:14:10.760Z,97377.08
2023-03-22T13:17:10.665Z,97374.94
2023-03-22T13:20:12.255Z,97375.51
2023-03-22T13:23:14.148Z,97385.88
2023-03-22T13:26:21.604Z,97386.16
2023-03-22T13:29:11.193Z,97388.09
2023-03-22T13:32:20.199Z,97399.25
2023-03-22T13:35:14.781Z,97396.02
2023-03-22T13:38:23.184Z,97399.83
2023-03-22T13:41:09.994Z,97407.45
2023-03-22T13:44:07.019Z,97412.38
2023-03-22T13:50:27.012Z,97412.41
2023-03-22T13:53:09.649Z,97414.86
2023-03-22T13:56:31.134Z,97420.03
2023-03-22T14:05:56.775Z,97410.25
2023-03-22T14:09:11.049Z,97410.55
2023-03-22T14:11:46.694Z,97416.25
2023-03-22T14:14:37.268Z,97425.23
2023-03-22T14:17:38.865Z,97436.12
2023-03-22T14:20:20.718Z,97435.58
